createdAt,value
2018-02-21T00:01:51.813Z,36.30
2018-02-21T00:04:19.150Z,37.67
2018-02-21T00:06:46.525Z,36.27
2018-02-21T00:09:13.864Z,32.70
2018-02-21T00:11:41.259Z,35.50
2018-02-21T00:14:08.602Z,34.77
2018-02-21T00:16:36.007Z,35.70
2018-02-21T00:19:03.368Z,32.93
2018-02-21T00:21:30.751Z,34.23
2018-02-21T00:23:58.092Z,33.97
2018-02-21T00:26:25.458Z,34.83
2018-02-21T00:28:52.796Z,35.70
2018-02-21T00:31:20.180Z,35.10
2018-02-21T00:33:47.539Z,34.90
2018-02-21T00:36:14.887Z,34.93
2018-02-21T00:38:43.290Z,33.80
2018-02-21T00:41:10.632Z,35.87
2018-02-21T00:43:38.000Z,34.80
2018-02-21T00:46:05.348Z,35.27
2018-02-21T00:48:32.714Z,35.03
2018-02-21T00:51:00.166Z,33.77
2018-02-21T00:53:27.526Z,34.63
2018-02-21T00:55:54.875Z,34.53
2018-02-21T00:58:22.242Z,36.00
2018-02-21T01:00:49.582Z,35.70
2018-02-21T01:03:16.952Z,36.80
2018-02-21T01:05:44.591Z,38.10
2018-02-21T01:08:11.993Z,35.50
2018-02-21T01:10:39.365Z,36.00
2018-02-21T01:13:06.735Z,36.87
2018-02-21T01:15:34.078Z,37.93
2018-02-21T01:18:01.459Z,36.97
2018-02-21T01:20:28.823Z,35.67
2018-02-21T01:22:56.169Z,34.53
2018-02-21T01:25:23.549Z,37.40
2018-02-21T01:27:50.907Z,36.80
2018-02-21T01:30:18.283Z,37.10
2018-02-21T01:32:45.625Z,36.90
2018-02-21T01:35:13.001Z,37.83
2018-02-21T01:37:40.346Z,38.17
2018-02-21T01:40:07.727Z,37.43
2018-02-21T01:42:35.077Z,36.13
2018-02-21T01:45:02.452Z,36.37
2018-02-21T01:47:29.792Z,38.57
2018-02-21T01:49:57.176Z,36.73
2018-02-21T01:52:24.525Z,37.80
2018-02-21T01:54:51.880Z,37.67
2018-02-21T01:57:19.260Z,38.57
2018-02-21T01:59:46.607Z,39.10
2018-02-21T02:02:13.977Z,39.57
2018-02-21T02:04:41.323Z,36.30
2018-02-21T02:07:08.699Z,39.67
2018-02-21T02:09:36.062Z,39.23
2018-02-21T02:12:03.434Z,39.87
2018-02-21T02:14:30.848Z,37.37
2018-02-21T02:16:58.227Z,37.50
2018-02-21T02:19:25.576Z,39.30
2018-02-21T02:21:52.950Z,38.70
2018-02-21T02:24:20.291Z,37.87
2018-02-21T02:26:47.665Z,39.40
2018-02-21T02:29:15.010Z,39.30
2018-02-21T02:31:42.403Z,39.93
2018-02-21T02:34:09.752Z,40.77
2018-02-21T02:36:37.150Z,41.43
2018-02-21T02:39:10.161Z,40.13
2018-02-21T02:41:37.530Z,39.40
2018-02-21T02:44:04.868Z,39.87
2018-02-21T02:46:32.254Z,40.50
2018-02-21T02:48:59.630Z,39.03
2018-02-21T02:51:26.986Z,40.00
2018-02-21T02:53:54.359Z,40.40
2018-02-21T02:56:21.713Z,39.77
2018-02-21T02:58:49.075Z,40.30
2018-02-21T03:01:16.526Z,38.37
2018-02-21T03:03:43.905Z,39.80
2018-02-21T03:06:11.274Z,37.63
2018-02-21T03:08:38.653Z,39.20
2018-02-21T03:11:06.011Z,40.17
2018-02-21T03:13:33.406Z,38.50
2018-02-21T03:16:00.755Z,40.40
2018-02-21T03:18:28.126Z,41.50
2018-02-21T03:20:55.476Z,42.10
2018-02-21T03:23:22.842Z,39.07
2018-02-21T03:25:50.223Z,41.07
2018-02-21T03:28:17.559Z,38.90
2018-02-21T03:30:44.929Z,39.70
2018-02-21T03:33:12.273Z,40.97
2018-02-21T03:35:39.672Z,39.90
2018-02-21T03:38:07.017Z,40.40
2018-02-21T03:40:34.416Z,42.23
2018-02-21T03:43:01.868Z,41.20
2018-02-21T03:45:29.243Z,39.47
2018-02-21T03:47:56.578Z,42.10
2018-02-21T03:50:23.949Z,44.33
2018-02-21T03:52:51.290Z,42.40
2018-02-21T03:55:18.661Z,43.90
2018-02-21T03:57:46.006Z,42.43
2018-02-21T04:00:13.345Z,41.33
2018-02-21T04:02:40.727Z,41.20
2018-02-21T04:05:08.095Z,43.57
2018-02-21T04:07:35.519Z,42.33
2018-02-21T04:10:02.870Z,44.73
2018-02-21T04:12:30.239Z,45.33
2018-02-21T04:14:57.578Z,46.60
2018-02-21T04:17:24.940Z,45.23
2018-02-21T04:19:52.283Z,43.43
2018-02-21T04:22:19.886Z,46.40
2018-02-21T04:24:47.221Z,48.07
2018-02-21T04:27:14.562Z,46.53
2018-02-21T04:29:42.018Z,46.13
2018-02-21T04:32:09.473Z,47.30
2018-02-21T04:34:36.835Z,45.70
2018-02-21T04:37:04.184Z,47.30
2018-02-21T04:39:31.581Z,47.53
2018-02-21T04:41:58.928Z,45.17
2018-02-21T04:44:26.323Z,46.27
2018-02-21T04:46:53.664Z,50.07
2018-02-21T04:49:21.047Z,45.00
2018-02-21T04:51:48.406Z,49.27
2018-02-21T04:54:31.808Z,46.77
2018-02-21T04:57:15.971Z,47.83
2018-02-21T04:59:47.832Z,50.00
2018-02-21T05:02:15.176Z,49.00
2018-02-21T05:04:42.518Z,48.67
2018-02-21T05:07:10.765Z,46.50
2018-02-21T05:09:38.099Z,49.23
2018-02-21T05:12:05.551Z,50.40
2018-02-21T05:14:32.913Z,48.80
2018-02-21T05:17:00.280Z,45.60
2018-02-21T05:19:27.632Z,49.43
2018-02-21T05:21:55.076Z,47.77
2018-02-21T05:24:22.418Z,48.40
2018-02-21T05:26:49.766Z,49.60
2018-02-21T05:29:17.138Z,52.30
2018-02-21T05:31:44.485Z,51.23
2018-02-21T05:34:11.856Z,49.50
2018-02-21T05:36:39.203Z,49.83
2018-02-21T05:39:06.578Z,52.47
2018-02-21T05:41:33.925Z,49.23
2018-02-21T05:44:01.328Z,54.17
2018-02-21T05:46:28.723Z,57.27
2018-02-21T05:48:56.116Z,52.47
2018-02-21T05:51:23.465Z,49.67
2018-02-21T05:53:50.807Z,52.07
2018-02-21T05:56:18.176Z,49.50
2018-02-21T05:58:45.519Z,52.87
2018-02-21T06:01:12.890Z,50.70
2018-02-21T06:03:40.234Z,52.07
2018-02-21T06:06:07.603Z,52.67
2018-02-21T06:08:34.955Z,47.43
2018-02-21T06:11:02.330Z,53.00
2018-02-21T06:13:29.678Z,53.13
2018-02-21T06:15:57.054Z,53.40
2018-02-21T06:18:24.412Z,52.23
2018-02-21T06:20:51.798Z,55.27
2018-02-21T06:23:19.154Z,51.40
2018-02-21T06:25:46.546Z,53.83
2018-02-21T06:28:13.900Z,51.63
2018-02-21T06:30:41.254Z,49.07
2018-02-21T06:33:08.636Z,48.50
2018-02-21T06:35:36.023Z,52.90
2018-02-21T06:38:03.390Z,50.67
2018-02-21T06:40:30.735Z,52.73
2018-02-21T06:42:58.195Z,51.50
2018-02-21T06:45:25.648Z,52.73
2018-02-21T06:47:53.020Z,51.73
2018-02-21T06:50:20.367Z,54.43
2018-02-21T06:52:47.739Z,55.03
2018-02-21T06:55:15.084Z,52.93
2018-02-21T06:57:42.525Z,52.40
2018-02-21T07:00:09.872Z,50.97
2018-02-21T07:02:37.292Z,51.93
2018-02-21T07:05:04.644Z,54.43
2018-02-21T07:07:32.016Z,56.03
2018-02-21T07:09:59.372Z,64.37
2018-02-21T07:12:26.751Z,54.27
2018-02-21T07:14:54.103Z,55.17
2018-02-21T07:17:21.468Z,50.70
2018-02-21T07:19:49.089Z,50.10
2018-02-21T07:22:16.435Z,56.80
2018-02-21T07:24:43.802Z,47.07
2018-02-21T07:27:11.157Z,50.97
2018-02-21T07:29:38.529Z,51.47
2018-02-21T07:32:05.879Z,53.27
2018-02-21T07:34:33.256Z,52.03
2018-02-21T07:37:00.603Z,54.23
2018-02-21T07:39:27.987Z,54.73
2018-02-21T07:41:55.423Z,50.37
2018-02-21T07:44:22.764Z,49.53
2018-02-21T07:46:50.136Z,50.07
2018-02-21T07:49:17.477Z,51.70
2018-02-21T07:51:44.843Z,49.30
2018-02-21T07:54:12.182Z,50.47
2018-02-21T07:56:39.548Z,48.97
2018-02-21T07:59:06.881Z,52.50
2018-02-21T08:01:34.250Z,52.27
2018-02-21T08:04:01.598Z,48.70
2018-02-21T08:06:28.968Z,47.27
2018-02-21T08:08:56.312Z,46.03
2018-02-21T08:11:23.685Z,50.03
2018-02-21T08:13:51.035Z,52.30
2018-02-21T08:16:18.379Z,49.37
2018-02-21T08:18:45.752Z,49.43
2018-02-21T08:21:13.099Z,47.80
2018-02-21T08:23:40.556Z,45.60
2018-02-21T08:26:07.913Z,46.87
2018-02-21T08:28:35.283Z,48.83
2018-02-21T08:31:02.624Z,46.97
2018-02-21T08:33:30.003Z,50.00
2018-02-21T08:35:57.341Z,49.63
2018-02-21T08:38:24.717Z,48.03
2018-02-21T08:40:52.074Z,48.67
2018-02-21T08:43:19.444Z,49.90
2018-02-21T08:45:46.782Z,48.77
2018-02-21T08:48:14.167Z,47.47
2018-02-21T08:50:41.533Z,46.87
2018-02-21T08:53:08.933Z,44.80
2018-02-21T08:55:36.278Z,49.30
2018-02-21T08:58:03.630Z,48.67
2018-02-21T09:00:31.000Z,50.53
2018-02-21T09:02:58.339Z,49.67
2018-02-21T09:05:25.706Z,48.97
2018-02-21T09:07:53.055Z,45.27
2018-02-21T09:10:20.428Z,48.53
2018-02-21T09:12:47.763Z,48.90
2018-02-21T09:15:15.212Z,43.90
2018-02-21T09:17:42.552Z,42.57
2018-02-21T09:20:09.914Z,43.70
2018-02-21T09:22:37.251Z,46.67
2018-02-21T09:25:04.643Z,44.97
2018-02-21T09:27:31.992Z,52.70
2018-02-21T09:29:59.340Z,48.20
2018-02-21T09:32:26.710Z,46.97
2018-02-21T09:34:54.053Z,44.67
2018-02-21T09:37:21.421Z,45.47
2018-02-21T09:39:48.762Z,45.80
2018-02-21T09:42:16.131Z,49.40
2018-02-21T09:44:43.478Z,47.37
2018-02-21T09:47:10.846Z,49.10
2018-02-21T09:49:38.284Z,50.80
2018-02-21T09:52:05.683Z,46.87
2018-02-21T09:54:33.064Z,49.27
2018-02-21T09:57:00.406Z,49.47
2018-02-21T09:59:27.774Z,47.60
2018-02-21T10:01:55.123Z,50.30
2018-02-21T10:04:22.495Z,47.67
2018-02-21T10:06:49.842Z,51.23
2018-02-21T10:09:17.217Z,44.47
2018-02-21T10:11:44.554Z,48.40
2018-02-21T10:14:11.917Z,45.67
2018-02-21T10:16:39.254Z,44.77
2018-02-21T10:19:06.630Z,49.73
2018-02-21T10:21:33.975Z,47.40
2018-02-21T10:24:01.355Z,45.73
2018-02-21T10:26:28.806Z,48.80
2018-02-21T10:28:56.142Z,44.77
2018-02-21T10:31:23.513Z,46.17
2018-02-21T10:33:50.856Z,45.90
2018-02-21T10:36:18.228Z,45.13
2018-02-21T10:38:45.568Z,42.50
2018-02-21T10:41:12.930Z,43.30
2018-02-21T10:43:40.271Z,40.47
2018-02-21T10:46:07.644Z,46.70
2018-02-21T10:48:34.992Z,46.20
2018-02-21T10:51:02.369Z,39.40
2018-02-21T10:53:29.812Z,44.60
2018-02-21T10:55:57.203Z,41.57
2018-02-21T10:58:24.547Z,38.77
2018-02-21T11:00:57.470Z,44.60
2018-02-21T11:03:24.811Z,46.93
2018-02-21T11:05:52.157Z,40.77
2018-02-21T11:08:19.524Z,44.17
2018-02-21T11:10:46.867Z,41.13
2018-02-21T11:13:14.239Z,51.00
2018-02-21T11:15:41.593Z,49.57
2018-02-21T11:18:08.961Z,40.37
2018-02-21T11:20:36.312Z,45.07
2018-02-21T11:23:03.683Z,46.10
2018-02-21T11:25:31.025Z,39.10
2018-02-21T11:27:58.400Z,40.67
2018-02-21T11:30:25.739Z,44.40
2018-02-21T11:32:53.127Z,43.60
2018-02-21T11:35:20.496Z,46.83
2018-02-21T11:37:47.844Z,40.57
2018-02-21T11:40:15.223Z,39.10
2018-02-21T11:42:42.567Z,42.80
2018-02-21T11:45:09.906Z,40.23
2018-02-21T11:47:37.277Z,43.50
2018-02-21T11:50:04.619Z,42.83
2018-02-21T11:52:31.988Z,39.47
2018-02-21T11:54:59.327Z,37.93
2018-02-21T11:57:26.773Z,42.90
2018-02-21T11:59:54.111Z,40.07
2018-02-21T12:02:21.483Z,41.33
2018-02-21T12:04:48.887Z,42.67
2018-02-21T12:07:16.222Z,41.90
2018-02-21T12:09:43.574Z,40.73
2018-02-21T12:12:11.003Z,40.17
2018-02-21T12:14:38.460Z,42.70
2018-02-21T12:17:05.806Z,40.27
2018-02-21T12:19:33.178Z,40.43
2018-02-21T12:22:00.522Z,41.30
2018-02-21T12:24:27.888Z,40.37
2018-02-21T12:26:55.244Z,40.23
2018-02-21T12:29:22.644Z,38.63
2018-02-21T12:31:50.667Z,39.30
2018-02-21T12:34:18.118Z,40.37
2018-02-21T12:36:45.453Z,41.57
2018-02-21T12:39:18.672Z,41.77
2018-02-21T12:41:46.032Z,38.27
2018-02-21T12:44:13.577Z,34.97
2018-02-21T12:46:41.033Z,36.27
2018-02-21T12:49:08.441Z,36.40
2018-02-21T12:51:35.784Z,39.10
2018-02-21T12:54:03.205Z,38.23
2018-02-21T12:56:30.575Z,39.93
2018-02-21T12:58:58.012Z,32.03
2018-02-21T13:01:25.373Z,37.53
2018-02-21T13:03:52.709Z,38.83
2018-02-21T13:06:20.084Z,37.00
2018-02-21T13:08:47.422Z,38.47
2018-02-21T13:11:14.784Z,38.90
2018-02-21T13:13:42.166Z,34.47
2018-02-21T13:16:09.498Z,37.67
2018-02-21T13:18:36.871Z,34.40
2018-02-21T13:21:04.212Z,32.90
2018-02-21T13:23:31.609Z,36.57
2018-02-21T13:25:58.945Z,33.80
2018-02-21T13:28:26.312Z,30.93
2018-02-21T13:30:53.650Z,32.67
2018-02-21T13:33:20.999Z,35.83
2018-02-21T13:35:48.361Z,29.83
2018-02-21T13:38:15.791Z,28.07
2018-02-21T13:40:43.248Z,34.70
2018-02-21T13:43:10.597Z,34.47
2018-02-21T13:45:37.962Z,37.33
2018-02-21T13:48:05.304Z,34.77
2018-02-21T13:50:32.652Z,35.07
2018-02-21T13:53:00.027Z,37.90
2018-02-21T13:55:27.526Z,34.23
2018-02-21T13:57:54.880Z,34.10
2018-02-21T14:00:22.228Z,31.10
2018-02-21T14:02:49.591Z,31.07
2018-02-21T14:05:16.937Z,26.90
2018-02-21T14:07:44.323Z,32.03
2018-02-21T14:10:11.667Z,30.37
2018-02-21T14:12:39.012Z,33.07
2018-02-21T14:15:06.372Z,30.50
2018-02-21T14:17:33.748Z,32.33
2018-02-21T14:20:01.099Z,30.27
2018-02-21T14:22:28.454Z,34.40
2018-02-21T14:24:55.845Z,31.60
2018-02-21T14:27:23.195Z,34.17
2018-02-21T14:29:50.563Z,27.70
2018-02-21T14:32:17.922Z,30.37
2018-02-21T14:34:45.294Z,31.80
2018-02-21T14:37:12.722Z,30.70
2018-02-21T14:39:40.061Z,31.40
2018-02-21T14:42:07.529Z,35.33
2018-02-21T14:44:34.883Z,33.13
2018-02-21T14:47:02.261Z,29.00
2018-02-21T14:49:29.696Z,33.97
2018-02-21T14:51:57.154Z,30.07
2018-02-21T14:54:24.496Z,31.27
2018-02-21T14:56:51.870Z,29.57
2018-02-21T14:59:19.207Z,26.27
2018-02-21T15:01:46.674Z,29.47
2018-02-21T15:04:14.011Z,30.10
2018-02-21T15:06:41.351Z,26.97
2018-02-21T15:09:08.720Z,29.77
2018-02-21T15:11:36.094Z,28.17
2018-02-21T15:14:03.555Z,28.13
2018-02-21T15:16:30.891Z,28.30
2018-02-21T15:18:58.258Z,27.87
2018-02-21T15:21:25.608Z,26.60
2018-02-21T15:23:52.975Z,26.37
2018-02-21T15:26:20.427Z,24.90
2018-02-21T15:28:47.812Z,28.23
2018-02-21T15:31:15.170Z,25.20
2018-02-21T15:33:42.525Z,26.23
2018-02-21T15:36:09.898Z,25.37
2018-02-21T15:38:37.278Z,23.53
2018-02-21T15:41:04.645Z,23.67
2018-02-21T15:43:31.995Z,27.20
2018-02-21T15:45:59.358Z,34.27
2018-02-21T15:48:26.721Z,37.70
2018-02-21T15:50:54.063Z,30.47
2018-02-21T15:53:21.436Z,28.87
2018-02-21T15:55:48.785Z,28.13
2018-02-21T15:58:16.242Z,26.27
2018-02-21T16:00:43.586Z,26.43
2018-02-21T16:03:10.958Z,27.30
2018-02-21T16:05:38.308Z,26.83
2018-02-21T16:08:05.682Z,28.37
2018-02-21T16:10:33.024Z,27.40
2018-02-21T16:13:00.402Z,30.10
2018-02-21T16:15:27.738Z,29.17
2018-02-21T16:17:55.112Z,28.47
2018-02-21T16:20:22.488Z,26.80
2018-02-21T16:22:49.836Z,27.53
2018-02-21T16:25:17.248Z,26.77
2018-02-21T16:27:44.592Z,25.43
2018-02-21T16:30:11.959Z,23.87
2018-02-21T16:32:39.313Z,24.70
2018-02-21T16:35:06.769Z,23.50
2018-02-21T16:37:34.106Z,25.47
2018-02-21T16:40:01.470Z,24.27
2018-02-21T16:42:28.814Z,24.47
2018-02-21T16:44:56.189Z,24.67
2018-02-21T16:47:23.531Z,23.50
2018-02-21T16:49:50.899Z,25.20
2018-02-21T16:52:18.270Z,24.20
2018-02-21T16:54:45.710Z,23.90
2018-02-21T16:57:13.168Z,23.93
2018-02-21T16:59:40.514Z,23.07
2018-02-21T17:02:07.881Z,23.50
2018-02-21T17:04:35.235Z,23.90
2018-02-21T17:07:02.623Z,22.17
2018-02-21T17:09:29.964Z,23.90
2018-02-21T17:11:57.308Z,22.90
2018-02-21T17:14:24.674Z,31.70
2018-02-21T17:16:52.108Z,22.67
2018-02-21T17:19:19.461Z,23.93
2018-02-21T17:21:46.921Z,21.80
2018-02-21T17:24:14.380Z,23.07
2018-02-21T17:26:41.730Z,23.60
2018-02-21T17:29:09.096Z,23.80
2018-02-21T17:31:36.547Z,24.57
2018-02-21T17:34:03.904Z,22.53
2018-02-21T17:36:31.259Z,22.97
2018-02-21T17:38:58.626Z,22.03
2018-02-21T17:41:31.811Z,21.63
2018-02-21T17:43:59.184Z,24.20
2018-02-21T17:46:26.524Z,25.60
2018-02-21T17:48:53.861Z,24.83
2018-02-21T17:51:21.234Z,21.60
2018-02-21T17:53:48.578Z,24.10
2018-02-21T17:56:16.029Z,22.67
2018-02-21T17:58:43.371Z,25.40
2018-02-21T18:01:10.745Z,25.20
2018-02-21T18:03:38.083Z,22.27
2018-02-21T18:06:05.552Z,24.57
2018-02-21T18:08:32.897Z,26.43
2018-02-21T18:11:00.234Z,25.47
2018-02-21T18:13:27.615Z,23.07
2018-02-21T18:15:54.969Z,26.73
2018-02-21T18:18:22.358Z,23.80
2018-02-21T18:20:49.712Z,24.77
2018-02-21T18:23:17.077Z,26.30
2018-02-21T18:25:44.438Z,25.97
2018-02-21T18:28:11.806Z,28.17
2018-02-21T18:30:39.204Z,25.20
2018-02-21T18:33:06.552Z,26.30
2018-02-21T18:35:34.013Z,27.80
2018-02-21T18:38:01.353Z,25.33
2018-02-21T18:40:28.710Z,24.80
2018-02-21T18:42:56.081Z,26.50
2018-02-21T18:45:23.435Z,27.80
2018-02-21T18:47:50.787Z,25.20
2018-02-21T18:50:18.172Z,23.90
2018-02-21T18:52:45.525Z,27.27
2018-02-21T18:55:12.870Z,36.27
2018-02-21T18:57:40.239Z,28.20
2018-02-21T19:00:07.580Z,24.57
2018-02-21T19:02:34.952Z,23.97
2018-02-21T19:05:02.291Z,23.03
2018-02-21T19:07:29.649Z,25.70
2018-02-21T19:09:56.986Z,27.63
2018-02-21T19:12:24.382Z,24.33
2018-02-21T19:14:51.797Z,26.77
2018-02-21T19:17:19.140Z,28.37
2018-02-21T19:19:46.511Z,27.33
2018-02-21T19:22:13.877Z,23.73
2018-02-21T19:24:41.313Z,23.40
2018-02-21T19:27:08.649Z,25.07
2018-02-21T19:29:36.125Z,24.40
2018-02-21T19:32:03.484Z,26.80
2018-02-21T19:34:30.938Z,25.90
2018-02-21T19:36:58.403Z,23.17
2018-02-21T19:39:25.738Z,27.50
2018-02-21T19:41:53.208Z,24.37
2018-02-21T19:44:20.554Z,25.07
2018-02-21T19:46:47.932Z,23.77
2018-02-21T19:49:15.263Z,21.90
2018-02-21T19:51:42.633Z,22.50
2018-02-21T19:54:10.019Z,18.30
2018-02-21T19:56:37.369Z,23.70
2018-02-21T19:59:04.742Z,15.90
2018-02-21T20:01:32.098Z,23.20
2018-02-21T20:03:59.502Z,22.43
2018-02-21T20:06:26.879Z,24.13
2018-02-21T20:08:54.243Z,26.17
2018-02-21T20:11:21.670Z,20.37
2018-02-21T20:13:49.018Z,21.63
2018-02-21T20:16:16.389Z,20.73
2018-02-21T20:18:43.745Z,21.80
2018-02-21T20:21:11.199Z,17.47
2018-02-21T20:23:38.541Z,22.97
2018-02-21T20:26:05.915Z,20.37
2018-02-21T20:28:33.280Z,21.93
2018-02-21T20:31:00.647Z,18.47
2018-02-21T20:33:28.019Z,25.63
2018-02-21T20:35:55.407Z,20.73
2018-02-21T20:38:22.768Z,23.00
2018-02-21T20:40:50.240Z,23.90
2018-02-21T20:43:17.621Z,19.33
2018-02-21T20:45:44.988Z,24.20
2018-02-21T20:48:12.362Z,23.70
2018-02-21T20:50:39.706Z,23.00
2018-02-21T20:53:07.087Z,21.47
2018-02-21T20:55:34.441Z,20.83
2018-02-21T20:58:01.851Z,22.70
2018-02-21T21:00:29.203Z,25.20
2018-02-21T21:02:56.646Z,20.97
2018-02-21T21:05:24.045Z,22.80
2018-02-21T21:07:51.411Z,21.70
2018-02-21T21:10:18.785Z,25.00
2018-02-21T21:12:46.141Z,23.10
2018-02-21T21:15:13.534Z,18.63
2018-02-21T21:17:40.873Z,23.10
2018-02-21T21:20:08.297Z,24.03
2018-02-21T21:22:35.634Z,23.83
2018-02-21T21:25:02.972Z,22.80
2018-02-21T21:27:30.335Z,23.80
2018-02-21T21:29:57.671Z,23.73
2018-02-21T21:32:25.031Z,23.30
2018-02-21T21:34:52.470Z,24.63
2018-02-21T21:37:19.834Z,20.10
2018-02-21T21:39:47.263Z,21.00
2018-02-21T21:42:14.656Z,21.77
2018-02-21T21:44:41.999Z,22.40
2018-02-21T21:47:09.344Z,26.47
2018-02-21T21:49:36.719Z,26.40
2018-02-21T21:52:04.063Z,27.17
2018-02-21T21:54:31.427Z,24.53
2018-02-21T21:56:58.771Z,27.87
2018-02-21T21:59:26.203Z,24.77
2018-02-21T22:01:53.543Z,24.40
2018-02-21T22:04:20.915Z,26.43
2018-02-21T22:06:48.256Z,26.80
2018-02-21T22:09:15.724Z,25.87
2018-02-21T22:11:43.091Z,24.50
2018-02-21T22:14:10.432Z,26.53
2018-02-21T22:16:37.844Z,26.93
2018-02-21T22:19:05.184Z,26.03
2018-02-21T22:21:32.549Z,25.30
2018-02-21T22:23:59.886Z,27.87
2018-02-21T22:26:27.270Z,23.47
2018-02-21T22:28:54.632Z,26.73
2018-02-21T22:31:21.972Z,31.03
2018-02-21T22:33:49.334Z,28.10
2018-02-21T22:36:16.730Z,27.17
2018-02-21T22:38:44.093Z,27.70
2018-02-21T22:41:11.429Z,26.60
2018-02-21T22:43:38.807Z,26.97
2018-02-21T22:46:06.169Z,24.87
2018-02-21T22:48:33.518Z,27.93
2018-02-21T22:51:00.894Z,26.50
2018-02-21T22:53:28.234Z,28.50
2018-02-21T22:55:55.609Z,28.27
2018-02-21T22:58:22.946Z,29.27
2018-02-21T23:00:50.350Z,27.43
2018-02-21T23:03:17.733Z,26.33
2018-02-21T23:05:45.086Z,27.10
2018-02-21T23:08:12.457Z,27.43
2018-02-21T23:10:39.800Z,27.30
2018-02-21T23:13:07.182Z,28.00
2018-02-21T23:15:34.513Z,27.47
2018-02-21T23:18:01.886Z,28.00
2018-02-21T23:20:29.227Z,27.03
2018-02-21T23:22:56.674Z,28.63
2018-02-21T23:25:24.011Z,26.53
2018-02-21T23:27:51.355Z,29.20
2018-02-21T23:30:18.722Z,26.23
2018-02-21T23:32:46.105Z,27.40
2018-02-21T23:35:13.468Z,27.50
2018-02-21T23:37:40.810Z,28.10
2018-02-21T23:40:08.186Z,29.17
2018-02-21T23:42:35.617Z,26.80
2018-02-21T23:45:02.998Z,28.53
2018-02-21T23:47:30.425Z,27.30
2018-02-21T23:49:57.762Z,25.43
2018-02-21T23:52:25.138Z,27.87
2018-02-21T23:54:52.480Z,26.47
2018-02-21T23:57:19.951Z,28.80
2018-02-21T23:59:47.403Z,27.03
